createdAt,value
2023-03-02T00:00:53.448Z,89.32
2023-03-02T00:03:20.297Z,89.80
2023-03-02T00:05:47.201Z,89.43
2023-03-02T00:08:16.848Z,89.81
2023-03-02T00:10:43.766Z,90.60
2023-03-02T00:13:11.472Z,89.83
2023-03-02T00:15:39.850Z,89.29
2023-03-02T00:18:06.573Z,88.60
2023-03-02T00:20:33.473Z,88.38
2023-03-02T00:23:00.512Z,88.34
2023-03-02T00:25:27.373Z,88.06
2023-03-02T00:27:54.218Z,88.63
2023-03-02T00:30:21.333Z,87.90
2023-03-02T00:32:49.464Z,87.30
2023-03-02T00:35:16.579Z,86.61
2023-03-02T00:37:43.425Z,86.20
2023-03-02T00:40:11.185Z,86.75
2023-03-02T00:42:38.447Z,86.37
2023-03-02T00:45:06.768Z,86.14
2023-03-02T00:47:34.657Z,86.36
2023-03-02T00:50:04.182Z,87.25
2023-03-02T00:52:31.312Z,86.98
2023-03-02T00:54:58.114Z,85.82
2023-03-02T00:57:25.243Z,85.93
2023-03-02T00:59:52.012Z,86.06
2023-03-02T01:02:18.873Z,86.61
2023-03-02T01:04:45.694Z,86.36
2023-03-02T01:07:16.472Z,86.22
2023-03-02T01:09:45.069Z,85.75
2023-03-02T01:12:12.325Z,85.79
2023-03-02T01:14:41.589Z,85.76
2023-03-02T01:17:09.548Z,85.52
2023-03-02T01:19:36.637Z,84.54
2023-03-02T01:22:03.567Z,83.58
2023-03-02T01:24:31.878Z,82.35
2023-03-02T01:26:58.668Z,81.70
2023-03-02T01:29:25.547Z,81.26
2023-03-02T01:31:52.564Z,80.50
2023-03-02T01:34:19.485Z,80.36
2023-03-02T01:36:46.232Z,80.20
2023-03-02T01:39:13.498Z,79.99
2023-03-02T01:41:41.823Z,80.22
2023-03-02T01:44:39.250Z,79.94
2023-03-02T01:47:12.208Z,80.25
2023-03-02T01:49:39.456Z,80.12
2023-03-02T01:52:06.317Z,80.20
2023-03-02T01:54:33.192Z,80.07
2023-03-02T01:57:04.337Z,79.83
2023-03-02T01:59:33.188Z,79.67
2023-03-02T02:02:03.598Z,79.80
2023-03-02T02:04:32.463Z,80.51
2023-03-02T02:07:02.052Z,80.57
2023-03-02T02:09:30.228Z,80.83
2023-03-02T02:11:57.032Z,80.22
2023-03-02T02:14:25.517Z,80.46
2023-03-02T02:16:52.586Z,80.85
2023-03-02T02:19:34.250Z,81.06
2023-03-02T02:22:01.694Z,81.67
2023-03-02T02:24:35.779Z,81.76
2023-03-02T02:27:04.623Z,82.69
2023-03-02T02:29:34.823Z,83.15
2023-03-02T02:32:06.787Z,83.50
2023-03-02T02:34:37.698Z,83.51
2023-03-02T02:37:09.782Z,83.53
2023-03-02T02:39:41.296Z,83.25
2023-03-02T02:42:14.022Z,83.45
2023-03-02T02:44:40.881Z,83.70
2023-03-02T02:47:16.341Z,83.61
2023-03-02T02:49:44.511Z,83.66
2023-03-02T02:52:15.408Z,83.57
2023-03-02T02:54:44.897Z,83.13
2023-03-02T02:57:14.150Z,83.24
2023-03-02T02:59:45.221Z,83.50
2023-03-02T03:02:18.139Z,83.15
2023-03-02T03:04:45.113Z,83.23
2023-03-02T03:07:19.677Z,83.16
2023-03-02T03:09:51.829Z,83.18
2023-03-02T03:12:23.245Z,83.54
2023-03-02T03:14:51.152Z,82.99
2023-03-02T03:17:17.961Z,83.88
2023-03-02T03:19:46.499Z,83.63
2023-03-02T03:22:15.242Z,83.50
2023-03-02T03:24:43.626Z,84.05
2023-03-02T03:27:12.218Z,84.30
2023-03-02T03:29:45.641Z,84.86
2023-03-02T03:32:12.499Z,84.55
2023-03-02T03:34:39.634Z,84.63
2023-03-02T03:37:07.105Z,84.96
2023-03-02T03:39:34.189Z,85.21
2023-03-02T03:42:01.189Z,85.54
2023-03-02T03:44:28.042Z,85.83
2023-03-02T03:46:56.323Z,85.40
2023-03-02T03:49:23.786Z,85.63
2023-03-02T03:51:50.672Z,86.32
2023-03-02T03:54:17.573Z,86.39
2023-03-02T03:56:47.064Z,86.07
2023-03-02T03:59:16.721Z,86.03
2023-03-02T04:01:46.386Z,86.25
2023-03-02T04:04:17.060Z,87.00
2023-03-02T04:06:44.676Z,87.34
2023-03-02T04:09:12.525Z,87.47
2023-03-02T04:11:41.040Z,86.92
2023-03-02T04:14:08.623Z,86.59
2023-03-02T04:16:36.407Z,87.28
2023-03-02T04:19:05.430Z,87.36
2023-03-02T04:21:33.530Z,87.35
2023-03-02T04:24:00.278Z,87.31
2023-03-02T04:26:27.130Z,87.14
2023-03-02T04:28:53.971Z,87.21
2023-03-02T04:31:20.762Z,87.35
2023-03-02T04:33:47.591Z,87.25
2023-03-02T04:36:14.368Z,87.15
2023-03-02T04:38:42.512Z,87.32
2023-03-02T04:41:09.310Z,87.32
2023-03-02T04:43:36.052Z,86.87
2023-03-02T04:46:02.812Z,86.76
2023-03-02T04:48:29.938Z,86.46
2023-03-02T04:50:56.679Z,86.47
2023-03-02T04:53:23.437Z,86.75
2023-03-02T04:55:51.580Z,86.58
2023-03-02T04:58:18.297Z,86.65
2023-03-02T05:00:45.095Z,86.79
2023-03-02T05:03:11.915Z,86.29
2023-03-02T05:05:38.778Z,86.23
2023-03-02T05:08:05.566Z,86.48
2023-03-02T05:10:32.525Z,86.49
2023-03-02T05:13:00.651Z,85.92
2023-03-02T05:15:30.157Z,86.07
2023-03-02T05:17:57.857Z,86.71
2023-03-02T05:20:25.482Z,87.28
2023-03-02T05:22:52.215Z,87.23
2023-03-02T05:25:18.984Z,86.69
2023-03-02T05:27:46.401Z,86.68
2023-03-02T05:30:15.201Z,87.16
2023-03-02T05:32:42.056Z,87.07
2023-03-02T05:35:09.459Z,87.13
2023-03-02T05:37:36.194Z,87.20
2023-03-02T05:40:03.189Z,87.12
2023-03-02T05:42:29.932Z,87.06
2023-03-02T05:44:56.718Z,86.45
2023-03-02T05:47:24.896Z,84.69
2023-03-02T05:49:51.658Z,83.57
2023-03-02T05:52:18.376Z,82.06
2023-03-02T05:54:45.116Z,80.93
2023-03-02T05:57:11.891Z,80.08
2023-03-02T05:59:38.646Z,78.79
2023-03-02T06:02:05.469Z,78.53
2023-03-02T06:04:33.614Z,78.18
2023-03-02T06:07:00.403Z,76.29
2023-03-02T06:09:27.183Z,76.29
2023-03-02T06:11:53.935Z,75.75
2023-03-02T06:14:20.658Z,75.54
2023-03-02T06:16:47.438Z,75.52
2023-03-02T06:19:14.201Z,75.43
2023-03-02T06:21:42.304Z,75.55
2023-03-02T06:24:09.103Z,75.69
2023-03-02T06:26:35.801Z,75.52
2023-03-02T06:29:02.674Z,75.64
2023-03-02T06:31:29.953Z,76.37
2023-03-02T06:33:56.680Z,77.52
2023-03-02T06:36:23.513Z,78.24
2023-03-02T06:38:51.877Z,78.63
2023-03-02T06:41:18.688Z,78.11
2023-03-02T06:43:45.773Z,78.01
2023-03-02T06:46:12.847Z,78.37
2023-03-02T06:48:39.674Z,79.17
2023-03-02T06:51:06.403Z,79.26
2023-03-02T06:53:33.202Z,79.30
2023-03-02T06:56:01.290Z,78.65
2023-03-02T06:58:28.015Z,78.75
2023-03-02T07:00:54.769Z,78.10
2023-03-02T07:03:21.598Z,76.97
2023-03-02T07:05:48.348Z,76.28
2023-03-02T07:08:15.110Z,76.30
2023-03-02T07:10:41.816Z,76.07
2023-03-02T07:13:09.899Z,75.16
2023-03-02T07:15:39.103Z,73.70
2023-03-02T07:18:06.178Z,72.53
2023-03-02T07:20:33.187Z,72.15
2023-03-02T07:23:00.011Z,71.81
2023-03-02T07:25:26.779Z,71.18
2023-03-02T07:27:53.498Z,70.33
2023-03-02T07:30:21.721Z,69.70
2023-03-02T07:32:48.799Z,68.35
2023-03-02T07:35:15.555Z,67.87
2023-03-02T07:37:42.359Z,65.94
2023-03-02T07:40:11.202Z,64.28
2023-03-02T07:42:38.395Z,64.11
2023-03-02T07:45:06.441Z,64.38
2023-03-02T07:47:34.626Z,63.97
2023-03-02T07:50:01.465Z,64.60
2023-03-02T07:52:29.476Z,63.60
2023-03-02T07:54:56.445Z,62.41
2023-03-02T07:57:23.229Z,61.75
2023-03-02T07:59:50.142Z,60.91
2023-03-02T08:02:18.284Z,60.24
2023-03-02T08:04:46.637Z,59.84
2023-03-02T08:07:13.588Z,59.72
2023-03-02T08:09:40.913Z,59.71
2023-03-02T08:12:08.205Z,58.85
2023-03-02T08:14:35.752Z,59.08
2023-03-02T08:17:04.361Z,59.47
2023-03-02T08:19:31.343Z,58.50
2023-03-02T08:21:59.502Z,58.01
2023-03-02T08:24:26.817Z,58.63
2023-03-02T08:26:53.611Z,57.50
2023-03-02T08:29:20.682Z,57.30
2023-03-02T08:31:47.462Z,56.62
2023-03-02T08:34:14.439Z,56.31
2023-03-02T08:36:41.189Z,56.26
2023-03-02T08:39:09.416Z,55.90
2023-03-02T08:41:36.409Z,55.72
2023-03-02T08:44:03.247Z,55.32
2023-03-02T08:46:30.123Z,55.45
2023-03-02T08:48:56.890Z,55.65
2023-03-02T08:51:25.872Z,55.45
2023-03-02T08:53:54.424Z,54.62
2023-03-02T08:56:25.937Z,54.30
2023-03-02T08:58:54.485Z,53.04
2023-03-02T09:01:23.340Z,53.88
2023-03-02T09:03:50.980Z,53.64
2023-03-02T09:06:17.758Z,52.96
2023-03-02T09:08:45.019Z,51.90
2023-03-02T09:11:11.942Z,52.83
2023-03-02T09:13:40.571Z,52.58
2023-03-02T09:16:08.636Z,53.18
2023-03-02T09:18:36.612Z,54.12
2023-03-02T09:21:04.257Z,52.82
2023-03-02T09:23:32.765Z,52.44
2023-03-02T09:26:01.084Z,52.16
2023-03-02T09:28:27.814Z,51.98
2023-03-02T09:30:58.836Z,52.03
2023-03-02T09:33:26.382Z,52.54
2023-03-02T09:35:53.158Z,52.33
2023-03-02T09:38:19.902Z,51.95
2023-03-02T09:41:07.598Z,52.53
2023-03-02T09:43:46.488Z,52.21
2023-03-02T09:46:20.564Z,51.35
2023-03-02T09:48:58.127Z,51.41
2023-03-02T09:51:36.065Z,50.40
2023-03-02T09:54:10.244Z,50.95
2023-03-02T09:56:42.440Z,50.33
2023-03-02T09:59:20.411Z,47.56
2023-03-02T10:01:53.275Z,46.86
2023-03-02T10:04:25.471Z,46.12
2023-03-02T10:06:56.955Z,46.04
2023-03-02T10:09:24.049Z,45.65
2023-03-02T10:12:04.698Z,45.97
2023-03-02T10:14:37.915Z,46.62
2023-03-02T10:17:22.213Z,46.63
2023-03-02T10:19:56.357Z,45.40
2023-03-02T10:22:29.922Z,46.64
2023-03-02T10:25:08.349Z,47.19
2023-03-02T10:27:39.424Z,47.11
2023-03-02T10:30:16.636Z,46.26
2023-03-02T10:32:48.693Z,45.64
2023-03-02T10:35:18.614Z,45.62
2023-03-02T10:37:45.401Z,45.17
2023-03-02T10:40:30.019Z,45.27
2023-03-02T10:42:58.445Z,45.28
2023-03-02T10:45:29.385Z,44.62
2023-03-02T10:48:06.239Z,44.44
2023-03-02T10:50:33.704Z,44.80
2023-03-02T10:53:04.211Z,44.79
2023-03-02T10:55:33.720Z,44.00
2023-03-02T10:58:03.645Z,44.56
2023-03-02T11:00:31.609Z,46.33
2023-03-02T11:03:00.311Z,46.83
2023-03-02T11:05:31.640Z,46.26
2023-03-02T11:08:00.105Z,46.60
2023-03-02T11:10:29.278Z,46.08
2023-03-02T11:12:56.249Z,45.66
2023-03-02T11:15:26.477Z,45.77
2023-03-02T11:18:00.636Z,45.56
2023-03-02T11:20:32.592Z,45.72
2023-03-02T11:23:21.066Z,46.50
2023-03-02T11:25:52.869Z,46.82
2023-03-02T11:28:41.890Z,47.71
2023-03-02T11:31:17.546Z,46.97
2023-03-02T11:34:15.630Z,46.59
2023-03-02T11:36:57.782Z,45.84
2023-03-02T11:39:41.135Z,45.56
2023-03-02T11:42:20.117Z,45.96
2023-03-02T11:44:48.193Z,45.17
2023-03-02T11:47:16.576Z,43.58
2023-03-02T11:49:48.351Z,42.87
2023-03-02T11:52:20.053Z,43.23
2023-03-02T11:54:52.909Z,42.73
2023-03-02T11:57:23.375Z,42.88
2023-03-02T11:59:52.164Z,44.51
2023-03-02T12:02:19.891Z,44.28
2023-03-02T12:04:47.926Z,44.11
2023-03-02T12:07:22.784Z,43.77
2023-03-02T12:10:05.084Z,43.62
2023-03-02T12:12:36.435Z,43.69
2023-03-02T12:15:03.877Z,45.35
2023-03-02T12:17:33.788Z,45.37
2023-03-02T12:20:23.666Z,45.26
2023-03-02T12:22:51.974Z,45.20
2023-03-02T12:25:38.008Z,44.60
2023-03-02T12:28:04.898Z,44.75
2023-03-02T12:30:31.726Z,44.78
2023-03-02T12:33:04.614Z,43.31
2023-03-02T12:35:33.200Z,42.75
2023-03-02T12:38:04.221Z,43.15
2023-03-02T12:40:53.580Z,41.68
2023-03-02T12:43:29.538Z,39.96
2023-03-02T12:46:28.631Z,35.83
2023-03-02T12:49:27.081Z,37.63
2023-03-02T12:51:56.062Z,39.95
2023-03-02T12:54:26.353Z,40.06
2023-03-02T12:57:03.829Z,40.88
2023-03-02T12:59:30.667Z,40.04
2023-03-02T13:02:13.214Z,39.02
2023-03-02T13:04:40.113Z,37.88
2023-03-02T13:07:14.675Z,37.01
2023-03-02T13:09:55.687Z,37.20
2023-03-02T13:12:24.174Z,38.46
2023-03-02T13:14:55.046Z,39.64
2023-03-02T13:17:24.930Z,40.33
2023-03-02T13:19:52.493Z,41.18
2023-03-02T13:22:20.937Z,41.98
2023-03-02T13:24:55.475Z,40.91
2023-03-02T13:27:24.294Z,40.11
2023-03-02T13:29:52.696Z,39.85
2023-03-02T13:32:22.605Z,38.09
2023-03-02T13:34:52.162Z,38.83
2023-03-02T13:37:32.481Z,39.85
2023-03-02T13:40:03.345Z,40.05
2023-03-02T13:42:36.325Z,40.45
2023-03-02T13:45:21.013Z,41.04
2023-03-02T13:47:48.035Z,40.75
2023-03-02T13:50:18.867Z,40.47
2023-03-02T13:52:45.864Z,40.82
2023-03-02T13:55:18.633Z,40.49
2023-03-02T13:57:46.876Z,40.82
2023-03-02T14:00:17.976Z,41.55
2023-03-02T14:02:44.844Z,41.67
2023-03-02T14:05:23.360Z,41.67
2023-03-02T14:07:50.432Z,41.71
2023-03-02T14:10:20.372Z,42.04
2023-03-02T14:12:54.194Z,40.12
2023-03-02T14:15:21.133Z,39.10
2023-03-02T14:17:47.921Z,39.46
2023-03-02T14:20:17.277Z,38.77
2023-03-02T14:22:44.048Z,38.19
2023-03-02T14:25:11.461Z,38.47
2023-03-02T14:27:41.384Z,38.23
2023-03-02T14:30:14.976Z,38.80
2023-03-02T14:32:41.866Z,39.67
2023-03-02T14:35:12.053Z,41.22
2023-03-02T14:37:42.955Z,41.40
2023-03-02T14:40:21.236Z,41.51
2023-03-02T14:42:49.481Z,41.42
2023-03-02T14:45:16.264Z,41.44
2023-03-02T14:47:42.980Z,40.66
2023-03-02T14:50:11.236Z,39.91
2023-03-02T14:52:43.909Z,40.34
2023-03-02T14:55:17.613Z,41.20
2023-03-02T14:57:44.558Z,41.40
2023-03-02T15:00:15.206Z,40.87
2023-03-02T15:02:42.255Z,41.31
2023-03-02T15:05:10.293Z,41.99
2023-03-02T15:07:37.226Z,41.81
2023-03-02T15:10:05.449Z,41.83
2023-03-02T15:12:32.162Z,41.86
2023-03-02T15:14:58.853Z,41.53
2023-03-02T15:17:27.369Z,41.35
2023-03-02T15:19:54.326Z,41.16
2023-03-02T15:22:21.110Z,41.21
2023-03-02T15:24:47.910Z,41.69
2023-03-02T15:27:14.771Z,42.08
2023-03-02T15:29:43.501Z,42.08
2023-03-02T15:32:10.318Z,43.06
2023-03-02T15:34:38.482Z,42.67
2023-03-02T15:37:05.257Z,41.82
2023-03-02T15:39:32.174Z,41.59
2023-03-02T15:41:58.917Z,42.42
2023-03-02T15:44:25.727Z,42.01
2023-03-02T15:46:54.570Z,42.49
2023-03-02T15:49:21.581Z,42.74
2023-03-02T15:51:49.928Z,42.47
2023-03-02T15:54:16.686Z,41.97
2023-03-02T15:56:44.442Z,42.34
2023-03-02T15:59:11.974Z,42.66
2023-03-02T16:01:38.844Z,43.09
2023-03-02T16:04:05.681Z,43.84
2023-03-02T16:06:32.448Z,43.88
2023-03-02T16:09:00.602Z,44.02
2023-03-02T16:11:27.315Z,43.82
2023-03-02T16:13:54.248Z,44.95
2023-03-02T16:16:21.596Z,43.99
2023-03-02T16:18:51.820Z,43.18
2023-03-02T16:21:18.677Z,44.26
2023-03-02T16:23:46.442Z,45.42
2023-03-02T16:26:16.901Z,45.36
2023-03-02T16:28:43.749Z,45.12
2023-03-02T16:31:13.215Z,44.75
2023-03-02T16:33:40.431Z,45.15
2023-03-02T16:36:09.041Z,45.17
2023-03-02T16:38:36.137Z,45.51
2023-03-02T16:41:03.489Z,45.67
2023-03-02T16:43:31.942Z,45.64
2023-03-02T16:45:59.439Z,45.44
2023-03-02T16:48:26.301Z,45.61
2023-03-02T16:50:57.651Z,45.94
2023-03-02T16:53:24.885Z,45.76
2023-03-02T16:55:51.700Z,45.74
2023-03-02T16:58:18.480Z,45.11
2023-03-02T17:00:46.712Z,45.23
2023-03-02T17:03:13.464Z,45.04
2023-03-02T17:05:40.168Z,45.18
2023-03-02T17:08:07.081Z,45.48
2023-03-02T17:10:33.807Z,45.12
2023-03-02T17:13:00.822Z,45.13
2023-03-02T17:15:27.712Z,45.02
2023-03-02T17:17:55.982Z,45.06
2023-03-02T17:20:22.908Z,45.07
2023-03-02T17:22:49.726Z,45.15
2023-03-02T17:25:17.259Z,45.19
2023-03-02T17:27:44.158Z,45.26
2023-03-02T17:30:12.619Z,45.62
2023-03-02T17:32:39.535Z,46.45
2023-03-02T17:35:11.302Z,46.90
2023-03-02T17:37:38.549Z,47.22
2023-03-02T17:40:06.941Z,47.73
2023-03-02T17:42:33.707Z,48.51
2023-03-02T17:45:00.512Z,49.27
2023-03-02T17:47:27.290Z,49.97
2023-03-02T17:49:54.035Z,49.61
2023-03-02T17:52:22.277Z,49.75
2023-03-02T17:54:49.804Z,50.49
2023-03-02T17:57:16.685Z,51.00
2023-03-02T17:59:43.516Z,51.37
2023-03-02T18:02:10.479Z,51.83
2023-03-02T18:04:37.196Z,52.24
2023-03-02T18:07:03.936Z,52.60
2023-03-02T18:09:32.163Z,53.03
2023-03-02T18:11:59.155Z,53.30
2023-03-02T18:14:26.138Z,53.39
2023-03-02T18:16:52.847Z,54.04
2023-03-02T18:19:19.554Z,54.77
2023-03-02T18:21:46.352Z,55.22
2023-03-02T18:24:13.115Z,55.28
2023-03-02T18:26:41.322Z,55.13
2023-03-02T18:29:08.173Z,55.61
2023-03-02T18:31:35.036Z,56.35
2023-03-02T18:34:02.355Z,56.52
2023-03-02T18:36:29.488Z,56.40
2023-03-02T18:38:56.345Z,55.98
2023-03-02T18:41:24.514Z,55.91
2023-03-02T18:43:52.769Z,56.09
2023-03-02T18:46:21.601Z,56.07
2023-03-02T18:48:49.709Z,56.39
2023-03-02T18:51:16.966Z,56.67
2023-03-02T18:53:43.735Z,56.96
2023-03-02T18:56:10.723Z,57.32
2023-03-02T18:58:37.498Z,57.71
2023-03-02T19:01:05.908Z,58.17
2023-03-02T19:03:35.292Z,58.79
2023-03-02T19:06:02.200Z,59.05
2023-03-02T19:08:29.058Z,59.84
2023-03-02T19:10:55.904Z,60.49
2023-03-02T19:13:23.447Z,60.66
2023-03-02T19:15:50.806Z,61.20
2023-03-02T19:18:22.178Z,61.23
2023-03-02T19:20:50.563Z,60.96
2023-03-02T19:23:17.890Z,61.14
2023-03-02T19:25:44.748Z,61.26
2023-03-02T19:28:11.459Z,61.56
2023-03-02T19:30:38.769Z,61.92
2023-03-02T19:33:05.793Z,61.61
2023-03-02T19:35:34.372Z,62.07
2023-03-02T19:38:01.342Z,62.37
2023-03-02T19:40:29.465Z,62.51
2023-03-02T19:42:57.226Z,62.60
2023-03-02T19:45:26.565Z,63.04
2023-03-02T19:47:54.180Z,63.06
2023-03-02T19:50:22.699Z,63.11
2023-03-02T19:52:51.039Z,63.27
2023-03-02T19:55:17.917Z,63.58
2023-03-02T19:57:44.677Z,64.27
2023-03-02T20:00:15.771Z,64.89
2023-03-02T20:02:42.511Z,64.83
2023-03-02T20:05:10.928Z,64.72
2023-03-02T20:07:40.473Z,64.71
2023-03-02T20:10:13.277Z,64.92
2023-03-02T20:12:39.995Z,64.55
2023-03-02T20:15:07.610Z,64.84
2023-03-02T20:17:34.502Z,64.60
2023-03-02T20:20:01.277Z,64.61
2023-03-02T20:22:28.162Z,64.22
2023-03-02T20:24:54.933Z,63.49
2023-03-02T20:27:23.103Z,63.80
2023-03-02T20:29:49.889Z,63.52
2023-03-02T20:32:16.778Z,63.28
2023-03-02T20:34:43.820Z,63.00
2023-03-02T20:37:12.371Z,62.88
2023-03-02T20:39:42.721Z,62.27
2023-03-02T20:42:09.823Z,61.82
2023-03-02T20:44:38.405Z,61.63
2023-03-02T20:47:08.453Z,61.39
2023-03-02T20:49:37.100Z,61.18
2023-03-02T20:52:04.899Z,61.11
2023-03-02T20:54:34.715Z,61.03
2023-03-02T20:57:01.733Z,60.75
2023-03-02T20:59:28.714Z,60.59
2023-03-02T21:01:57.223Z,60.30
2023-03-02T21:04:24.005Z,59.98
2023-03-02T21:06:51.537Z,60.21
2023-03-02T21:09:18.545Z,59.12
2023-03-02T21:11:46.464Z,58.69
2023-03-02T21:14:13.434Z,58.69
2023-03-02T21:16:41.706Z,58.54
2023-03-02T21:19:14.466Z,58.17
2023-03-02T21:21:42.473Z,58.07
2023-03-02T21:24:10.113Z,58.15
2023-03-02T21:26:36.885Z,57.93
2023-03-02T21:29:04.279Z,58.35
2023-03-02T21:31:31.138Z,58.10
2023-03-02T21:33:58.004Z,57.95
2023-03-02T21:36:27.186Z,57.93
2023-03-02T21:38:54.060Z,57.90
2023-03-02T21:41:21.293Z,57.83
2023-03-02T21:43:48.544Z,57.79
2023-03-02T21:46:17.427Z,57.92
2023-03-02T21:48:45.047Z,57.87
2023-03-02T21:51:13.270Z,57.91
2023-03-02T21:53:42.161Z,57.84
2023-03-02T21:56:10.659Z,57.72
2023-03-02T21:58:37.494Z,57.83
2023-03-02T22:01:04.536Z,57.71
2023-03-02T22:03:31.269Z,57.95
2023-03-02T22:05:58.019Z,58.03
2023-03-02T22:08:24.779Z,58.04
2023-03-02T22:10:52.893Z,57.68
2023-03-02T22:13:23.124Z,58.02
2023-03-02T22:16:11.057Z,58.11
2023-03-02T22:18:37.871Z,57.63
2023-03-02T22:21:35.027Z,57.59
2023-03-02T22:24:17.844Z,56.74
2023-03-02T22:26:47.769Z,56.97
2023-03-02T22:29:17.431Z,56.46
2023-03-02T22:31:46.752Z,56.49
2023-03-02T22:34:15.669Z,55.82
2023-03-02T22:36:42.656Z,55.62
2023-03-02T22:39:16.898Z,55.48
2023-03-02T22:41:45.017Z,55.20
2023-03-02T22:44:13.187Z,55.36
2023-03-02T22:46:40.828Z,55.23
2023-03-02T22:49:17.258Z,55.25
2023-03-02T22:51:44.871Z,55.62
2023-03-02T22:54:23.823Z,55.30
2023-03-02T22:56:53.078Z,54.90
2023-03-02T22:59:23.732Z,54.85
2023-03-02T23:01:51.488Z,54.68
2023-03-02T23:04:22.046Z,54.97
2023-03-02T23:06:50.907Z,55.08
2023-03-02T23:09:20.100Z,55.11
2023-03-02T23:11:47.293Z,55.35
2023-03-02T23:14:26.690Z,55.66
2023-03-02T23:16:58.878Z,55.90
2023-03-02T23:19:27.096Z,55.84
2023-03-02T23:21:53.985Z,56.07
2023-03-02T23:24:21.074Z,55.89
2023-03-02T23:26:49.352Z,56.21
2023-03-02T23:29:16.385Z,56.46
2023-03-02T23:31:44.993Z,55.83
2023-03-02T23:34:12.434Z,55.72
2023-03-02T23:36:39.605Z,56.62
2023-03-02T23:39:07.109Z,56.46
2023-03-02T23:41:34.281Z,56.60
2023-03-02T23:44:01.201Z,56.59
2023-03-02T23:46:28.203Z,57.07
2023-03-02T23:48:56.612Z,56.81
2023-03-02T23:51:24.366Z,56.75
2023-03-02T23:53:51.375Z,56.94
2023-03-02T23:56:18.261Z,56.52
2023-03-02T23:58:45.055Z,56.62
